Time;durP1;ratioP1;P1;durP2;ratioP2;P2;SDS_P1;SDS_P2;PMS_P1;PMS_P2;Temp;Humidity;BMP_temperature;BMP_pressure;BME280_temperature;BME280_humidity;BME280_pressure;Samples;Min_cycle;Max_cycle;Signal;HPM_P1;HPM_P2
2023/06/23 00:00:11;;;;;;;10.48;7.55;;;20.00;88.30;;;19.30;72.15;100470.91;5001663;28;20046;-85
2023/06/23 00:02:42;;;;;;;11.35;7.63;;;20.00;88.30;;;19.31;72.39;100472.53;4983373;28;20487;-84
2023/06/23 00:05:11;;;;;;;12.85;7.68;;;20.00;88.20;;;19.28;72.11;100487.41;4996216;28;20042;-84
2023/06/23 00:07:39;;;;;;;10.18;7.60;;;20.00;88.20;;;19.28;72.09;100484.72;4986377;28;20035;-82
2023/06/23 00:10:10;;;;;;;11.52;7.30;;;20.00;88.10;;;19.30;72.29;100497.97;4985602;28;20093;-85
2023/06/23 00:12:41;;;;;;;11.27;8.27;;;20.00;88.10;;;19.29;71.94;100496.34;4990701;28;20053;-82
2023/06/23 00:15:13;;;;;;;9.95;7.63;;;20.00;87.90;;;19.21;71.98;100511.19;4998327;28;20037;-82
2023/06/23 00:17:41;;;;;;;11.38;8.27;;;19.90;88.00;;;19.20;72.15;100533.91;4994705;28;20124;-82
2023/06/23 00:20:12;;;;;;;14.50;8.30;;;19.90;88.10;;;19.18;71.95;100549.59;4991920;28;20042;-83
2023/06/23 00:22:40;;;;;;;12.95;8.45;;;19.90;87.90;;;19.19;71.71;100561.22;4988572;28;20053;-82
2023/06/23 00:25:10;;;;;;;11.77;7.68;;;19.90;88.10;;;19.10;72.10;100558.22;4988781;28;20050;-83
2023/06/23 00:27:37;;;;;;;11.55;8.15;;;19.80;88.00;;;19.09;71.81;100551.19;4997774;28;20042;-82
2023/06/23 00:30:07;;;;;;;12.38;8.20;;;19.80;88.00;;;19.09;71.81;100564.72;4987836;28;20048;-83
2023/06/23 00:32:36;;;;;;;12.07;8.13;;;19.80;88.30;;;19.09;72.15;100561.19;4987080;28;20060;-82
2023/06/23 00:35:03;;;;;;;13.85;9.60;;;19.80;88.10;;;19.09;72.17;100572.00;4988911;28;20494;-82
2023/06/23 00:37:31;;;;;;;13.02;9.43;;;19.80;88.10;;;19.07;71.90;100572.25;4984714;28;20056;-82
2023/06/23 00:40:02;;;;;;;15.05;9.63;;;19.70;88.20;;;19.08;72.20;100587.41;4985210;28;20093;-84
2023/06/23 00:42:29;;;;;;;11.98;8.68;;;19.80;88.30;;;19.10;72.35;100589.84;4977649;28;20402;-82
2023/06/23 00:44:58;;;;;;;12.88;9.02;;;19.80;88.30;;;19.09;71.84;100601.75;4990550;28;20113;-82
2023/06/23 00:47:26;;;;;;;12.93;9.02;;;19.80;88.30;;;19.08;72.30;100600.94;4992153;28;20061;-82
2023/06/23 00:49:54;;;;;;;12.20;8.90;;;19.80;88.40;;;19.09;72.29;100617.97;4991787;28;20044;-82
2023/06/23 00:52:25;;;;;;;14.23;9.43;;;19.80;88.30;;;19.11;72.26;100613.09;4987950;28;20165;-82
2023/06/23 00:54:52;;;;;;;17.50;9.40;;;19.80;88.30;;;19.10;71.95;100612.28;4986094;28;20137;-84
2023/06/23 00:57:20;;;;;;;15.07;9.27;;;19.80;88.40;;;19.11;72.45;100621.22;4986922;28;20081;-83
2023/06/23 00:59:47;;;;;;;12.00;9.35;;;19.80;88.30;;;19.12;72.40;100626.34;4969490;28;20078;-83
2023/06/23 01:02:14;;;;;;;14.80;10.45;;;19.80;88.40;;;19.13;72.23;100619.88;4974090;28;20043;-84
2023/06/23 01:04:41;;;;;;;14.63;9.70;;;19.80;88.30;;;19.14;72.38;100621.50;5001546;28;20089;-83
2023/06/23 01:07:25;;;;;;;14.65;9.38;;;19.80;88.30;;;19.15;72.22;100627.72;4989787;28;20042;-83
2023/06/23 01:10:03;;;;;;;13.27;9.38;;;19.80;88.40;;;19.14;72.11;100628.81;4984711;28;20116;-82
2023/06/23 01:12:39;;;;;;;13.85;10.02;;;19.80;88.40;;;19.13;72.04;100643.38;4987462;28;20076;-82
2023/06/23 01:15:15;;;;;;;14.43;9.88;;;19.80;88.50;;;19.14;72.28;100650.44;4988360;28;20042;-83
2023/06/23 01:17:50;;;;;;;12.10;9.13;;;19.80;88.50;;;19.14;72.26;100648.53;4970799;28;20121;-84
2023/06/23 01:20:24;;;;;;;13.32;8.90;;;19.80;88.40;;;19.16;72.07;100650.97;4978652;28;20580;-84
2023/06/23 01:23:17;;;;;;;15.43;9.85;;;19.80;88.30;;;19.13;72.16;100660.44;4982472;28;20576;-83
2023/06/23 01:25:55;;;;;;;13.00;9.43;;;19.90;88.50;;;19.08;72.57;100668.53;4987075;28;20141;-82
2023/06/23 01:28:55;;;;;;;12.40;8.80;;;19.80;88.50;;;19.10;72.67;100670.97;4991240;28;20054;-82
2023/06/23 01:31:31;;;;;;;14.65;10.10;;;19.80;88.50;;;19.06;72.49;100677.97;4978863;28;20136;-83
2023/06/23 01:34:03;;;;;;;16.42;9.45;;;19.80;88.60;;;19.08;72.43;100689.31;4985570;28;20487;-82
2023/06/23 01:36:38;;;;;;;14.65;9.65;;;19.80;88.60;;;19.07;72.54;100690.41;4989100;28;20045;-83
2023/06/23 01:39:09;;;;;;;13.65;9.27;;;19.80;88.60;;;19.06;72.59;100686.88;4981689;28;20081;-83
2023/06/23 01:41:45;;;;;;;12.98;8.60;;;19.70;88.50;;;19.06;72.51;100680.66;4968850;28;20427;-83
2023/06/23 01:44:15;;;;;;;11.15;9.00;;;19.80;88.60;;;19.06;72.38;100695.00;4995240;28;20553;-84
2023/06/23 01:46:49;;;;;;;12.98;9.77;;;19.80;88.70;;;19.03;72.68;100692.81;4986712;28;20077;-82
2023/06/23 01:49:22;;;;;;;17.05;9.63;;;19.80;88.80;;;19.03;72.40;100692.81;4976634;28;20042;-83
2023/06/23 01:51:52;;;;;;;13.25;9.50;;;19.70;88.60;;;19.03;72.48;100692.81;4987360;28;20084;-85
2023/06/23 01:54:21;;;;;;;14.27;9.07;;;19.70;88.70;;;19.03;72.54;100698.22;4997858;28;20140;-82
2023/06/23 01:56:50;;;;;;;14.35;8.82;;;19.70;88.50;;;19.02;72.72;100700.09;4990830;28;20043;-84
2023/06/23 01:59:21;;;;;;;15.20;8.55;;;19.70;88.70;;;19.00;72.46;100694.16;4988024;28;20042;-82
2023/06/23 02:01:49;;;;;;;15.52;9.75;;;19.70;88.70;;;19.00;72.46;100696.84;4984093;28;20051;-82
2023/06/23 02:04:18;;;;;;;13.60;8.82;;;19.70;88.80;;;18.97;72.67;100710.88;4987832;28;20045;-83
2023/06/23 02:06:49;;;;;;;14.77;8.95;;;19.60;88.50;;;18.97;72.36;100713.59;4986543;28;20073;-83
2023/06/23 02:09:23;;;;;;;13.57;8.50;;;19.70;88.50;;;18.98;72.25;100720.66;4991613;28;20506;-82
2023/06/23 02:11:52;;;;;;;13.40;7.78;;;19.70;88.50;;;18.96;72.24;100719.25;4990453;28;20070;-84
2023/06/23 02:14:22;;;;;;;15.23;8.43;;;19.60;88.30;;;18.95;72.36;100721.16;5001413;28;20586;-82
2023/06/23 02:16:51;;;;;;;11.02;7.80;;;19.70;88.50;;;18.95;71.93;100714.94;5002902;28;20046;-84
2023/06/23 02:19:20;;;;;;;14.05;8.68;;;19.70;88.40;;;18.92;72.00;100716.25;4990266;28;20560;-85
2023/06/23 02:21:48;;;;;;;12.18;8.07;;;19.60;88.20;;;18.91;72.11;100725.44;4991739;28;20121;-85
2023/06/23 02:24:16;;;;;;;13.57;7.55;;;19.60;88.10;;;18.88;71.79;100723.25;4999757;28;20582;-82
2023/06/23 02:26:47;;;;;;;9.93;7.28;;;19.60;88.10;;;18.89;72.02;100727.63;4993193;28;20506;-81
2023/06/23 02:29:15;;;;;;;13.00;7.90;;;19.60;88.20;;;18.88;71.63;100728.66;4991876;28;20054;-85
2023/06/23 02:31:44;;;;;;;12.68;8.18;;;19.60;88.10;;;18.85;72.03;100736.50;4990398;28;20053;-82
2023/06/23 02:34:11;;;;;;;12.40;7.95;;;19.60;88.10;;;18.84;71.73;100741.09;5000392;28;20074;-81
2023/06/23 02:36:46;;;;;;;11.48;7.38;;;19.50;88.10;;;18.84;71.80;100746.50;4993437;28;20133;-82
2023/06/23 02:39:19;;;;;;;12.00;7.88;;;19.50;88.10;;;18.82;72.12;100751.31;4991476;28;20142;-82
2023/06/23 02:41:53;;;;;;;14.07;8.38;;;19.50;88.30;;;18.80;71.90;100745.38;4991918;28;20038;-82
2023/06/23 02:44:29;;;;;;;11.85;8.05;;;19.50;88.30;;;18.78;72.02;100752.91;5007250;28;20046;-82
2023/06/23 02:47:00;;;;;;;16.20;9.27;;;19.50;88.40;;;18.78;72.15;100761.03;4991420;28;20575;-83
2023/06/23 02:49:30;;;;;;;10.43;7.68;;;19.50;88.50;;;18.77;72.38;100754.81;4991408;28;20541;-83
2023/06/23 02:52:01;;;;;;;12.30;8.18;;;19.50;88.50;;;18.78;72.23;100753.72;4984001;28;20046;-84
2023/06/23 02:54:32;;;;;;;;;;;19.50;88.40;;;18.76;71.96;100757.78;4986324;28;20078;-81
2023/06/23 02:57:01;;;;;;;12.27;8.53;;;19.50;88.50;;;18.76;72.37;100765.88;4982060;28;19977;-82
2023/06/23 02:59:30;;;;;;;16.27;9.02;;;19.50;88.50;;;18.77;72.08;100770.22;4971812;28;20085;-82
2023/06/23 03:02:02;;;;;;;16.58;8.65;;;19.50;88.50;;;18.76;72.17;100780.19;4985231;28;20518;-83
2023/06/23 03:04:32;;;;;;;13.30;9.05;;;19.50;88.40;;;18.77;72.05;100773.72;4990060;28;20838;-84
2023/06/23 03:06:59;;;;;;;17.15;9.35;;;19.50;88.40;;;18.77;72.31;100781.81;4997689;28;20045;-83
2023/06/23 03:09:27;;;;;;;16.65;9.35;;;19.50;88.30;;;18.78;72.40;100778.03;4988075;28;20046;-84
2023/06/23 03:11:54;;;;;;;17.20;9.68;;;19.50;88.60;;;18.78;72.49;100786.16;4997474;23;20069;-80
2023/06/23 03:14:21;;;;;;;13.73;8.68;;;19.50;88.70;;;18.77;72.71;100794.53;4993567;28;20150;-80
2023/06/23 03:16:59;;;;;;;14.88;9.30;;;19.50;88.80;;;18.77;72.76;100803.44;4991126;28;20046;-80
2023/06/23 03:19:37;;;;;;;15.25;9.50;;;19.50;88.80;;;18.77;72.52;100802.63;5006254;28;20145;-80
2023/06/23 03:22:10;;;;;;;16.27;9.75;;;19.50;88.80;;;18.74;73.15;100801.28;4998986;28;20045;-80
2023/06/23 03:24:40;;;;;;;16.75;9.38;;;19.50;89.10;;;18.72;73.21;100816.09;5013793;28;20481;-80
2023/06/23 03:27:11;;;;;;;16.17;9.52;;;19.40;89.10;;;18.71;73.38;100817.19;5005958;28;20043;-80
2023/06/23 03:29:45;;;;;;;16.05;9.43;;;19.40;89.10;;;18.73;72.95;100828.53;5017445;28;20074;-79
2023/06/23 03:32:19;;;;;;;16.15;8.85;;;19.40;89.10;;;18.74;72.90;100832.88;5007159;28;20104;-80
2023/06/23 03:34:58;;;;;;;15.82;10.23;;;19.50;89.10;;;18.75;72.80;100831.81;5023945;28;20045;-80
2023/06/23 03:37:27;;;;;;;14.43;9.07;;;19.50;89.10;;;18.76;73.15;100836.94;5012230;28;20513;-80
2023/06/23 03:40:01;;;;;;;14.90;10.13;;;19.50;89.30;;;18.73;73.57;100848.25;5006668;28;20038;-80
2023/06/23 03:42:29;;;;;;;15.57;10.38;;;19.50;89.50;;;18.74;73.27;100851.81;4999479;28;20126;-80
2023/06/23 03:45:00;;;;;;;16.13;10.13;;;19.50;89.50;;;18.71;73.77;100857.72;5009027;28;20415;-79
2023/06/23 03:47:31;;;;;;;18.90;10.18;;;19.40;89.60;;;18.71;73.75;100857.72;4997270;28;20132;-79
2023/06/23 03:50:09;;;;;;;18.17;10.75;;;19.40;89.70;;;18.72;73.79;100864.75;4998950;28;20117;-80
2023/06/23 03:52:38;;;;;;;16.23;10.45;;;19.40;90.00;;;18.72;74.00;100870.16;5013849;28;20046;-80
2023/06/23 03:55:10;;;;;;;18.50;11.57;;;19.40;89.90;;;18.72;73.87;100870.16;5012106;28;20045;-80
2023/06/23 03:57:39;;;;;;;18.23;11.52;;;19.40;89.90;;;18.72;73.85;100870.97;5010081;28;20136;-80
2023/06/23 04:00:08;;;;;;;17.98;10.82;;;19.40;89.70;;;18.76;74.00;100879.38;5022625;28;20041;-80
2023/06/23 04:02:47;;;;;;;17.25;11.70;;;19.50;89.80;;;18.78;74.04;100880.75;4998187;28;20050;-80
2023/06/23 04:05:17;;;;;;;19.13;12.32;;;19.50;89.70;;;18.81;73.71;100879.44;5008280;28;20045;-79
2023/06/23 04:07:46;;;;;;;16.77;10.80;;;19.50;89.70;;;18.81;73.59;100879.44;4993396;28;20133;-80
2023/06/23 04:10:16;;;;;;;20.05;12.35;;;19.50;89.50;;;18.82;73.50;100886.44;5011653;28;20038;-80
2023/06/23 04:12:46;;;;;;;19.10;12.43;;;19.40;89.50;;;18.84;73.81;100883.50;5027614;28;20528;-80
2023/06/23 04:15:17;;;;;;;17.70;11.35;;;19.50;89.50;;;18.84;73.58;100891.59;5015522;28;20148;-79
2023/06/23 04:17:46;;;;;;;22.85;12.85;;;19.50;89.50;;;18.85;73.71;100894.06;5024282;28;20050;-80
2023/06/23 04:20:15;;;;;;;17.55;12.05;;;19.50;89.50;;;18.85;73.72;100894.06;5023775;28;20077;-80
2023/06/23 04:22:47;;;;;;;26.05;13.35;;;19.60;89.40;;;18.87;73.17;100907.31;5002273;28;20056;-80
2023/06/23 04:25:17;;;;;;;20.95;13.18;;;19.60;89.50;;;18.88;73.26;100908.94;5021102;28;20042;-80
2023/06/23 04:27:46;;;;;;;20.38;13.40;;;19.60;89.40;;;18.87;73.37;100912.72;5015456;28;20120;-80
2023/06/23 04:30:15;;;;;;;20.08;13.40;;;19.60;89.40;;;18.87;73.28;100910.81;5019372;28;20038;-79
2023/06/23 04:32:43;;;;;;;22.17;13.00;;;19.60;89.50;;;18.85;73.39;100915.69;5016375;28;20065;-79
2023/06/23 04:35:11;;;;;;;22.42;13.10;;;19.60;89.30;;;18.83;73.16;100911.59;5015935;28;20041;-79
2023/06/23 04:37:45;;;;;;;26.33;14.18;;;19.50;89.30;;;18.79;73.38;100922.13;5024112;28;20057;-80
2023/06/23 04:40:21;;;;;;;21.13;13.43;;;19.50;89.50;;;18.72;73.74;100919.59;4993605;28;20092;-79
2023/06/23 04:42:54;;;;;;;28.15;13.52;;;19.50;89.70;;;18.74;73.56;100924.78;5009444;28;20132;-80
2023/06/23 04:45:26;;;;;;;21.95;12.65;;;19.50;89.70;;;18.78;73.70;100933.97;5017409;28;20095;-79
2023/06/23 04:47:58;;;;;;;20.30;13.65;;;19.50;89.50;;;18.76;73.83;100933.44;5019091;28;20124;-80
2023/06/23 04:50:29;;;;;;;21.17;13.88;;;19.50;89.80;;;18.75;74.15;100943.41;5029745;28;20120;-80
2023/06/23 04:53:05;;;;;;;22.75;13.20;;;19.50;89.90;;;18.76;74.01;100952.34;5017457;28;20569;-80
2023/06/23 04:55:36;;;;;;;19.73;13.52;;;19.50;89.70;;;18.76;74.03;100947.75;5008733;28;20052;-80
2023/06/23 04:58:06;;;;;;;20.60;12.60;;;19.50;89.90;;;18.77;74.25;100951.25;5002275;28;20070;-80
2023/06/23 05:00:34;;;;;;;22.13;13.32;;;19.50;89.90;;;18.76;74.10;100952.34;4990244;28;20480;-80
2023/06/23 05:03:03;;;;;;;22.77;13.35;;;19.50;89.70;;;18.77;73.97;100948.56;5007403;28;20073;-82
2023/06/23 05:05:33;;;;;;;18.85;13.35;;;19.50;89.90;;;18.77;73.79;100946.66;5024798;28;20594;-83
2023/06/23 05:08:05;;;;;;;19.83;13.13;;;19.50;89.70;;;18.76;73.76;100944.22;5011064;28;20801;-83
2023/06/23 05:10:34;;;;;;;24.00;14.40;;;19.50;89.90;;;18.76;73.74;100949.63;5001544;28;20054;-79
2023/06/23 05:13:03;;;;;;;21.77;14.20;;;19.50;89.70;;;18.75;73.79;100951.53;5000065;28;20041;-78
2023/06/23 05:15:30;;;;;;;18.83;13.45;;;19.50;89.90;;;18.76;74.03;100950.44;5004742;28;20055;-78
2023/06/23 05:17:59;;;;;;;19.27;13.23;;;19.50;89.90;;;18.76;73.62;100946.94;5003427;28;20080;-78
2023/06/23 05:20:28;;;;;;;25.83;14.55;;;19.50;89.70;;;18.76;74.06;100958.56;5017337;28;20049;-77
2023/06/23 05:22:58;;;;;;;23.38;14.18;;;19.50;90.00;;;18.77;73.86;100970.19;5005586;28;20133;-78
2023/06/23 05:25:30;;;;;;;19.27;12.73;;;19.50;89.80;;;18.79;74.07;100968.06;5009619;28;20486;-77
2023/06/23 05:28:00;;;;;;;20.70;14.27;;;19.50;89.80;;;18.78;74.31;100977.22;5001967;28;20836;-77
2023/06/23 05:30:30;;;;;;;20.38;13.55;;;19.50;90.00;;;18.80;74.03;100974.28;5011580;28;20050;-77
2023/06/23 05:33:00;;;;;;;20.95;14.05;;;19.50;89.80;;;18.82;73.86;100975.66;5024445;28;20030;-77
2023/06/23 05:35:30;;;;;;;20.17;13.35;;;19.50;90.00;;;18.81;73.87;100976.72;5029162;28;20045;-77
2023/06/23 05:37:58;;;;;;;24.15;14.27;;;19.50;90.20;;;18.81;74.19;100986.72;5017503;28;20409;-77
2023/06/23 05:40:26;;;;;;;23.08;13.10;;;19.50;90.20;;;18.81;74.26;100982.13;5020522;28;20041;-78
2023/06/23 05:42:54;;;;;;;21.83;14.57;;;19.50;90.20;;;18.81;74.13;100995.63;5011489;28;20133;-77
2023/06/23 05:45:21;;;;;;;23.27;14.25;;;19.50;90.20;;;18.84;74.47;100997.00;5005392;28;20041;-77
2023/06/23 05:48:00;;;;;;;19.92;13.50;;;19.60;90.20;;;18.85;74.43;100995.94;4990996;28;20188;-77
2023/06/23 05:50:31;;;;;;;22.88;13.90;;;19.60;90.30;;;18.87;74.42;101000.03;5013406;28;20136;-78
2023/06/23 05:53:03;;;;;;;22.63;14.75;;;19.60;90.10;;;18.88;74.63;100998.13;5008731;28;20548;-77
2023/06/23 05:55:35;;;;;;;23.90;14.23;;;19.60;90.20;;;18.89;74.53;101013.31;5011071;28;20069;-77
2023/06/23 05:58:09;;;;;;;22.63;15.05;;;19.60;90.20;;;18.91;74.49;101006.56;5019071;28;20494;-77
2023/06/23 06:00:41;;;;;;;25.75;15.90;;;19.60;90.40;;;18.92;74.36;101008.19;4998295;28;20128;-78
2023/06/23 06:03:14;;;;;;;26.58;13.98;;;19.60;90.40;;;18.92;74.50;101010.88;5003704;28;20042;-77
2023/06/23 06:05:48;;;;;;;28.27;15.85;;;19.70;90.40;;;18.95;74.53;101018.50;5010485;28;20120;-76
2023/06/23 06:08:16;;;;;;;26.83;15.85;;;19.70;90.30;;;18.97;74.57;101016.34;5021605;28;20124;-77
2023/06/23 06:10:46;;;;;;;21.27;14.55;;;19.70;90.40;;;19.00;74.87;101021.25;5020135;28;20051;-77
2023/06/23 06:13:17;;;;;;;27.85;15.95;;;19.70;90.50;;;19.01;74.58;101024.78;5013631;28;20386;-78
2023/06/23 06:15:47;;;;;;;23.33;15.77;;;19.80;90.40;;;19.04;74.35;101025.09;5006700;28;20062;-77
2023/06/23 06:18:17;;;;;;;21.25;14.20;;;19.80;90.30;;;19.08;74.68;101032.69;5007774;28;20160;-78
2023/06/23 06:20:46;;;;;;;24.23;15.70;;;19.80;90.20;;;19.10;74.72;101038.66;5003757;28;20136;-79
2023/06/23 06:23:15;;;;;;;24.50;15.27;;;19.80;90.30;;;19.12;74.63;101041.94;5008895;28;20045;-77
2023/06/23 06:25:45;;;;;;;23.95;16.30;;;19.90;90.30;;;19.12;74.55;101040.03;5008221;28;20124;-78
2023/06/23 06:28:14;;;;;;;22.48;15.95;;;19.80;90.40;;;19.13;74.53;101047.09;5007601;28;20038;-78
2023/06/23 06:30:42;;;;;;;26.27;15.65;;;19.80;90.40;;;19.15;74.95;101054.94;5003418;28;20073;-77
2023/06/23 06:33:12;;;;;;;24.83;15.38;;;19.90;90.70;;;19.17;75.31;101055.50;5007412;28;20052;-78
2023/06/23 06:35:41;;;;;;;22.90;14.45;;;19.90;91.00;;;19.18;75.43;101052.56;5011533;28;20219;-78
2023/06/23 06:38:10;;;;;;;22.17;14.85;;;19.90;90.80;;;19.22;74.90;101058.25;5003945;28;20068;-77
2023/06/23 06:40:39;;;;;;;25.63;15.85;;;19.90;90.50;;;19.22;74.90;101059.06;5018835;28;20456;-78
2023/06/23 06:43:07;;;;;;;22.25;15.25;;;20.00;90.60;;;19.25;74.96;101061.28;4997851;28;20117;-77
2023/06/23 06:45:35;;;;;;;27.05;15.32;;;20.00;90.80;;;19.26;75.26;101073.72;5008609;28;20038;-77
2023/06/23 06:48:06;;;;;;;26.08;16.52;;;20.00;90.60;;;19.29;74.98;101081.34;5011220;28;20070;-77
2023/06/23 06:50:33;;;;;;;29.67;15.48;;;20.00;90.40;;;19.33;74.82;101075.44;4994226;28;20442;-77
2023/06/23 06:53:02;;;;;;;22.30;14.85;;;20.10;90.60;;;19.36;74.81;101077.63;5010056;28;20129;-77
2023/06/23 06:55:31;;;;;;;20.13;14.75;;;20.10;90.50;;;19.37;74.61;101084.66;5017533;28;20053;-78
2023/06/23 06:57:58;;;;;;;28.02;15.98;;;20.10;90.40;;;19.39;74.86;101086.03;5015833;28;20053;-77
2023/06/23 07:00:28;;;;;;;23.05;14.63;;;20.10;90.40;;;19.42;75.15;101095.53;4998247;28;20076;-77
2023/06/23 07:02:56;;;;;;;22.10;15.15;;;20.20;90.80;;;19.43;74.87;101086.34;5005500;28;20144;-77
2023/06/23 07:05:24;;;;;;;24.15;14.98;;;20.10;90.80;;;19.47;75.12;101092.88;4996401;28;20125;-77
2023/06/23 07:07:51;;;;;;;25.17;15.95;;;20.20;90.90;;;19.48;75.33;101098.03;5006554;28;20037;-77
2023/06/23 07:10:19;;;;;;;22.98;14.75;;;20.30;90.80;;;19.51;75.40;101100.22;5010488;28;20054;-77
2023/06/23 07:12:46;;;;;;;24.27;16.45;;;20.20;91.00;;;19.55;75.68;101105.94;5002302;28;20577;-78
2023/06/23 07:15:14;;;;;;;27.25;16.17;;;20.30;91.00;;;19.62;75.26;101108.47;5007283;28;20113;-77
2023/06/23 07:17:43;;;;;;;26.50;15.73;;;20.30;91.00;;;19.68;76.07;101112.88;4999166;28;20127;-78
2023/06/23 07:20:11;;;;;;;24.23;14.68;;;20.40;91.50;;;19.72;75.24;101119.44;5004588;28;20129;-77
2023/06/23 07:22:39;;;;;;;22.77;14.98;;;20.40;91.00;;;19.78;76.18;101121.09;5003566;28;20056;-77
2023/06/23 07:25:06;;;;;;;21.80;14.40;;;20.50;91.80;;;19.81;75.99;101125.97;4998391;28;20105;-77
2023/06/23 07:27:34;;;;;;;20.92;13.82;;;20.50;91.40;;;19.86;75.64;101125.22;5005423;28;20491;-77
2023/06/23 07:30:01;;;;;;;18.95;13.10;;;20.60;91.00;;;19.87;75.13;101133.09;5010402;28;20518;-77
2023/06/23 07:32:28;;;;;;;19.95;12.13;;;20.60;90.50;;;19.93;74.99;101129.34;5005676;28;20068;-77
2023/06/23 07:34:57;;;;;;;20.30;13.07;;;20.70;90.60;;;20.04;74.50;101127.56;5006233;28;20096;-78
2023/06/23 07:37:24;;;;;;;19.77;13.27;;;20.80;89.80;;;20.15;75.49;101139.28;4999185;28;20146;-77
2023/06/23 07:39:52;;;;;;;18.35;12.35;;;20.90;91.50;;;20.22;75.51;101137.19;5013785;28;20056;-77
2023/06/23 07:42:19;;;;;;;16.60;11.93;;;20.90;90.80;;;20.33;75.19;101144.31;5003547;28;20309;-77
2023/06/23 07:44:46;;;;;;;17.17;11.60;;;21.00;90.60;;;20.40;74.75;101144.06;5003981;28;20068;-77
2023/06/23 07:47:13;;;;;;;23.13;11.70;;;21.10;90.20;;;20.46;74.24;101157.41;5004536;28;20042;-78
2023/06/23 07:49:41;;;;;;;18.77;11.38;;;21.20;89.90;;;20.52;73.51;101153.69;5007584;28;20053;-82
2023/06/23 07:52:09;;;;;;;15.70;11.40;;;21.20;89.50;;;20.58;74.31;101152.63;5005789;28;20501;-79
2023/06/23 07:54:37;;;;;;;23.48;13.20;;;21.30;89.90;;;20.61;73.32;101147.78;5003837;28;20113;-80
2023/06/23 07:57:08;;;;;;;17.85;11.48;;;21.30;89.10;;;20.61;73.69;101151.31;5001697;28;20054;-79
2023/06/23 07:59:35;;;;;;;17.92;11.63;;;21.40;88.90;;;20.65;73.29;101152.44;5005897;28;20037;-80
2023/06/23 08:02:03;;;;;;;15.65;10.27;;;21.40;88.80;;;20.70;71.38;101154.34;5014631;28;20051;-79
2023/06/23 08:04:31;;;;;;;14.23;9.90;;;21.50;87.50;;;20.76;71.76;101145.97;5011127;28;20100;-79
2023/06/23 08:06:58;;;;;;;17.27;10.20;;;21.50;87.70;;;20.79;70.44;101148.19;5019647;28;20205;-79
2023/06/23 08:09:26;;;;;;;19.10;10.30;;;21.60;86.70;;;20.86;72.03;101156.06;4997359;28;20046;-79
2023/06/23 08:11:54;;;;;;;13.70;9.27;;;21.60;88.30;;;20.98;73.01;101153.94;5007343;28;20038;-79
2023/06/23 08:14:21;;;;;;;14.30;8.35;;;21.70;88.70;;;21.06;71.89;101145.31;5001962;28;20135;-79
2023/06/23 08:16:49;;;;;;;15.70;8.27;;;21.80;88.30;;;21.19;70.89;101152.16;5013147;28;20041;-79
2023/06/23 08:19:21;;;;;;;13.45;8.52;;;21.90;86.90;;;21.31;71.83;101144.63;5027911;28;20124;-78
2023/06/23 08:21:49;;;;;;;17.42;8.55;;;22.10;87.70;;;21.44;69.60;101151.47;5021455;28;20049;-78
2023/06/23 08:24:16;;;;;;;14.27;8.18;;;22.20;85.70;;;21.56;70.04;101151.22;5005491;28;20050;-78
2023/06/23 08:26:45;;;;;;;10.65;7.25;;;22.30;85.50;;;21.65;70.38;101155.03;5015648;28;20455;-79
2023/06/23 08:29:12;;;;;;;11.48;7.35;;;22.40;86.70;;;21.73;67.84;101157.25;5020764;28;20136;-79
2023/06/23 08:31:45;;;;;;;11.85;7.60;;;22.40;84.10;;;21.81;67.74;101158.59;4997501;28;20124;-79
2023/06/23 08:34:13;;;;;;;11.73;6.75;;;22.50;83.90;;;21.91;67.22;101166.78;4998301;28;20054;-79
2023/06/23 08:36:40;;;;;;;11.02;6.50;;;22.60;83.30;;;22.02;66.25;101162.97;5019732;28;20070;-79
2023/06/23 08:39:08;;;;;;;11.80;5.63;;;22.70;81.60;;;22.10;63.74;101161.63;5010907;28;20137;-79
2023/06/23 08:41:38;;;;;;;11.02;5.63;;;22.80;80.00;;;22.19;67.24;101170.06;5008297;28;20046;-79
2023/06/23 08:44:07;;;;;;;11.30;6.18;;;22.90;83.30;;;22.21;63.02;101171.44;5007528;28;20091;-79
2023/06/23 08:46:36;;;;;;;8.77;5.90;;;23.00;78.60;;;22.19;64.87;101175.50;4996281;28;20430;-79
2023/06/23 08:49:07;;;;;;;9.25;5.40;;;23.00;81.40;;;22.14;63.31;101183.66;5013935;28;20075;-80
2023/06/23 08:51:34;;;;;;;;;;;22.90;79.30;;;22.15;63.78;101186.09;5007808;28;20168;-79
2023/06/23 08:54:02;;;;;;;7.90;4.72;;;23.00;79.80;;;22.18;63.16;101179.31;5020722;28;19925;-79
2023/06/23 08:56:29;;;;;;;11.68;5.00;;;23.00;78.90;;;22.24;61.68;101189.09;4998546;28;20116;-79
2023/06/23 08:58:58;;;;;;;6.85;4.25;;;23.00;77.20;;;22.23;61.92;101193.72;5013966;28;20145;-79
2023/06/23 09:01:26;;;;;;;9.00;4.80;;;23.00;78.00;;;22.24;62.70;101189.09;4989982;28;20132;-79
2023/06/23 09:03:54;;;;;;;8.50;4.70;;;23.00;78.80;;;22.20;62.63;101201.59;4990837;28;20038;-79
2023/06/23 09:06:24;;;;;;;6.47;4.05;;;23.00;78.60;;;22.21;61.29;101198.63;5001211;28;20034;-79
2023/06/23 09:08:51;;;;;;;7.93;4.30;;;23.00;76.50;;;22.22;60.54;101202.16;5016149;28;20050;-79
2023/06/23 09:11:18;;;;;;;5.82;3.90;;;23.00;76.00;;;22.15;59.66;101201.59;5007176;28;20046;-79
2023/06/23 09:13:46;;;;;;;7.97;4.03;;;23.00;74.70;;;22.11;60.14;101201.34;5008044;28;20077;-78
2023/06/23 09:16:16;;;;;;;6.57;3.92;;;22.90;75.90;;;22.09;61.48;101207.00;5012249;28;20132;-78
2023/06/23 09:18:46;;;;;;;8.40;3.85;;;22.90;76.90;;;22.10;61.15;101205.91;5007306;28;20038;-78
2023/06/23 09:21:15;;;;;;;9.38;4.45;;;22.90;76.60;;;22.13;63.53;101209.22;4982109;28;20050;-82
2023/06/23 09:24:01;;;;;;;9.45;4.72;;;22.90;79.20;;;22.10;61.83;101218.66;4987587;28;20045;-82
2023/06/23 09:26:28;;;;;;;9.85;5.47;;;22.90;77.60;;;22.07;61.63;101216.50;4979916;28;20034;-81
2023/06/23 09:29:16;;;;;;;11.00;5.00;;;22.90;77.30;;;22.05;62.53;101215.94;4987303;28;20049;-83
2023/06/23 09:31:44;;;;;;;10.93;5.50;;;22.90;78.00;;;22.07;63.57;101217.31;4981820;28;20051;-82
2023/06/23 09:34:22;;;;;;;10.02;4.63;;;22.90;78.80;;;22.03;62.09;101216.22;4985167;28;20044;-81
2023/06/23 09:36:52;;;;;;;8.75;5.30;;;22.90;77.80;;;22.03;61.63;101220.84;4970114;28;20038;-82
2023/06/23 09:39:20;;;;;;;8.23;4.60;;;22.80;76.70;;;22.01;61.26;101231.16;4979272;28;20141;-81
2023/06/23 09:41:54;;;;;;;9.43;5.22;;;22.80;77.00;;;22.00;62.99;101227.63;4974521;28;20125;-83
2023/06/23 09:44:21;;;;;;;7.90;4.50;;;22.80;78.70;;;22.01;63.04;101221.13;4974698;28;20043;-83
2023/06/23 09:46:59;;;;;;;7.88;4.07;;;22.80;78.60;;;22.03;62.94;101232.53;4985713;28;20069;-83
2023/06/23 09:49:26;;;;;;;6.18;3.70;;;22.80;78.80;;;22.05;59.52;101224.91;4988324;28;20046;-82
2023/06/23 09:51:55;;;;;;;7.68;4.15;;;22.90;75.00;;;22.13;59.72;101239.09;4988292;28;20046;-82
2023/06/23 09:54:33;;;;;;;7.32;4.13;;;22.90;75.20;;;22.18;63.00;101229.03;4983607;28;20066;-83
2023/06/23 09:57:07;;;;;;;11.32;5.95;;;23.00;78.60;;;22.19;60.96;101233.38;4982209;28;20121;-83
2023/06/23 09:59:37;;;;;;;11.73;6.05;;;23.00;76.20;;;22.27;62.18;101240.19;4985663;28;20082;-81
2023/06/23 10:02:06;;;;;;;7.78;5.47;;;23.10;78.40;;;22.35;60.50;101234.22;4973518;28;20043;-83
2023/06/23 10:04:33;;;;;;;10.57;5.65;;;23.10;76.00;;;22.40;59.27;101245.13;4982089;28;20392;-83
2023/06/23 10:07:20;;;;;;;12.82;5.75;;;23.20;74.40;;;22.51;61.92;101245.94;4992527;28;20070;-81
2023/06/23 10:09:52;;;;;;;9.90;6.15;;;23.20;77.80;;;22.57;60.17;101247.56;4977766;28;20062;-84
2023/06/23 10:12:22;;;;;;;10.07;6.93;;;23.30;75.60;;;22.54;59.56;101242.66;4983410;28;20247;-82
2023/06/23 10:14:50;;;;;;;10.65;6.95;;;23.30;75.00;;;22.49;60.23;101251.63;4985936;28;20038;-82
2023/06/23 10:17:18;;;;;;;9.55;6.80;;;23.30;75.60;;;22.53;61.86;101239.13;4979034;28;20038;-80